sensor_id;sensor_type;location;lat;lon;timestamp;P1;durP1;ratioP1;P2;durP2;ratioP2
45714;SDS011;31430;61.646;24.704;2023-04-15T00:03:50;48.20;;;45.20;;
45714;SDS011;31430;61.646;24.704;2023-04-15T00:19:33;86.20;;;80.93;;
45714;SDS011;31430;61.646;24.704;2023-04-15T00:21:59;68.30;;;64.07;;
45714;SDS011;31430;61.646;24.704;2023-04-15T00:24:25;61.88;;;58.05;;
45714;SDS011;31430;61.646;24.704;2023-04-15T00:29:17;58.55;;;54.92;;
45714;SDS011;31430;61.646;24.704;2023-04-15T00:34:08;55.80;;;52.33;;
45714;SDS011;31430;61.646;24.704;2023-04-15T00:39:00;53.05;;;49.75;;
45714;SDS011;31430;61.646;24.704;2023-04-15T00:41:27;49.75;;;46.65;;
45714;SDS011;31430;61.646;24.704;2023-04-15T00:46:18;48.83;;;45.80;;
45714;SDS011;31430;61.646;24.704;2023-04-15T00:48:45;48.95;;;45.92;;
45714;SDS011;31430;61.646;24.704;2023-04-15T00:51:12;45.72;;;42.88;;
45714;SDS011;31430;61.646;24.704;2023-04-15T00:53:38;45.53;;;42.70;;
45714;SDS011;31430;61.646;24.704;2023-04-15T00:58:29;49.58;;;46.47;;
45714;SDS011;31430;61.646;24.704;2023-04-15T01:00:55;47.00;;;44.10;;
45714;SDS011;31430;61.646;24.704;2023-04-15T01:03:22;45.85;;;43.00;;
45714;SDS011;31430;61.646;24.704;2023-04-15T01:05:48;45.35;;;42.55;;
45714;SDS011;31430;61.646;24.704;2023-04-15T01:08:14;45.83;;;42.97;;
45714;SDS011;31430;61.646;24.704;2023-04-15T01:13:05;47.88;;;44.90;;
45714;SDS011;31430;61.646;24.704;2023-04-15T01:18:00;50.17;;;47.08;;
45714;SDS011;31430;61.646;24.704;2023-04-15T01:20:27;47.72;;;44.75;;
45714;SDS011;31430;61.646;24.704;2023-04-15T01:22:53;48.22;;;45.22;;
45714;SDS011;31430;61.646;24.704;2023-04-15T01:25:27;46.15;;;43.28;;
45714;SDS011;31430;61.646;24.704;2023-04-15T01:27:56;45.80;;;42.95;;
45714;SDS011;31430;61.646;24.704;2023-04-15T01:32:47;49.03;;;45.97;;
45714;SDS011;31430;61.646;24.704;2023-04-15T01:37:38;50.75;;;47.60;;
45714;SDS011;31430;61.646;24.704;2023-04-15T01:42:30;51.03;;;47.85;;
45714;SDS011;31430;61.646;24.704;2023-04-15T01:44:56;48.30;;;45.30;;
45714;SDS011;31430;61.646;24.704;2023-04-15T01:49:47;50.58;;;47.42;;
45714;SDS011;31430;61.646;24.704;2023-04-15T01:54:39;51.47;;;48.28;;
45714;SDS011;31430;61.646;24.704;2023-04-15T01:59:31;50.05;;;46.95;;
45714;SDS011;31430;61.646;24.704;2023-04-15T02:04:22;52.13;;;48.90;;
45714;SDS011;31430;61.646;24.704;2023-04-15T02:09:13;50.63;;;47.47;;
45714;SDS011;31430;61.646;24.704;2023-04-15T02:14:05;51.15;;;47.97;;
45714;SDS011;31430;61.646;24.704;2023-04-15T02:18:56;51.92;;;48.72;;
45714;SDS011;31430;61.646;24.704;2023-04-15T02:21:22;49.65;;;46.55;;
45714;SDS011;31430;61.646;24.704;2023-04-15T02:23:47;47.72;;;44.75;;
45714;SDS011;31430;61.646;24.704;2023-04-15T02:28:39;50.78;;;47.63;;
45714;SDS011;31430;61.646;24.704;2023-04-15T02:31:05;49.15;;;46.10;;
45714;SDS011;31430;61.646;24.704;2023-04-15T02:33:31;46.85;;;43.95;;
45714;SDS011;31430;61.646;24.704;2023-04-15T02:38:23;47.50;;;44.55;;
45714;SDS011;31430;61.646;24.704;2023-04-15T02:40:49;47.25;;;44.33;;
45714;SDS011;31430;61.646;24.704;2023-04-15T02:43:15;47.40;;;44.45;;
45714;SDS011;31430;61.646;24.704;2023-04-15T02:45:44;47.50;;;44.55;;
45714;SDS011;31430;61.646;24.704;2023-04-15T02:48:10;47.08;;;44.15;;
45714;SDS011;31430;61.646;24.704;2023-04-15T02:53:03;49.33;;;46.25;;
45714;SDS011;31430;61.646;24.704;2023-04-15T02:55:29;46.72;;;43.83;;
45714;SDS011;31430;61.646;24.704;2023-04-15T03:00:23;48.58;;;45.58;;
45714;SDS011;31430;61.646;24.704;2023-04-15T03:05:20;48.75;;;45.72;;
45714;SDS011;31430;61.646;24.704;2023-04-15T03:07:51;48.17;;;45.17;;
45714;SDS011;31430;61.646;24.704;2023-04-15T03:10:18;48.55;;;45.55;;
45714;SDS011;31430;61.646;24.704;2023-04-15T03:12:44;45.83;;;42.97;;
45714;SDS011;31430;61.646;24.704;2023-04-15T03:17:35;48.63;;;45.63;;
45714;SDS011;31430;61.646;24.704;2023-04-15T03:20:02;46.63;;;43.72;;
45714;SDS011;31430;61.646;24.704;2023-04-15T03:22:29;46.40;;;43.50;;
45714;SDS011;31430;61.646;24.704;2023-04-15T03:24:55;45.70;;;42.85;;
45714;SDS011;31430;61.646;24.704;2023-04-15T03:29:46;49.65;;;46.55;;
45714;SDS011;31430;61.646;24.704;2023-04-15T03:34:39;49.78;;;46.67;;
45714;SDS011;31430;61.646;24.704;2023-04-15T03:37:05;50.13;;;47.03;;
45714;SDS011;31430;61.646;24.704;2023-04-15T03:41:57;49.95;;;46.85;;
45714;SDS011;31430;61.646;24.704;2023-04-15T03:44:24;48.72;;;45.70;;
45714;SDS011;31430;61.646;24.704;2023-04-15T03:46:50;47.20;;;44.28;;
45714;SDS011;31430;61.646;24.704;2023-04-15T03:51:43;49.47;;;46.40;;
45714;SDS011;31430;61.646;24.704;2023-04-15T03:56:35;56.30;;;52.80;;
45714;SDS011;31430;61.646;24.704;2023-04-15T04:01:26;49.33;;;46.25;;
45714;SDS011;31430;61.646;24.704;2023-04-15T04:06:17;49.90;;;46.80;;
45714;SDS011;31430;61.646;24.704;2023-04-15T04:11:09;51.40;;;48.20;;
45714;SDS011;31430;61.646;24.704;2023-04-15T04:13:34;49.25;;;46.17;;
45714;SDS011;31430;61.646;24.704;2023-04-15T04:18:26;50.08;;;46.97;;
45714;SDS011;31430;61.646;24.704;2023-04-15T04:23:17;49.58;;;46.47;;
45714;SDS011;31430;61.646;24.704;2023-04-15T04:28:09;50.97;;;47.80;;
45714;SDS011;31430;61.646;24.704;2023-04-15T04:30:35;47.22;;;44.30;;
45714;SDS011;31430;61.646;24.704;2023-04-15T04:33:02;47.05;;;44.13;;
45714;SDS011;31430;61.646;24.704;2023-04-15T04:37:53;49.30;;;46.22;;
45714;SDS011;31430;61.646;24.704;2023-04-15T04:42:44;48.67;;;45.65;;
45714;SDS011;31430;61.646;24.704;2023-04-15T04:47:36;50.00;;;46.90;;
45714;SDS011;31430;61.646;24.704;2023-04-15T04:52:27;50.28;;;47.15;;
45714;SDS011;31430;61.646;24.704;2023-04-15T04:57:18;48.78;;;45.75;;
45714;SDS011;31430;61.646;24.704;2023-04-15T05:02:10;48.55;;;45.55;;
45714;SDS011;31430;61.646;24.704;2023-04-15T05:04:36;46.90;;;44.00;;
45714;SDS011;31430;61.646;24.704;2023-04-15T05:09:27;48.28;;;45.28;;
45714;SDS011;31430;61.646;24.704;2023-04-15T05:11:53;47.00;;;44.10;;
45714;SDS011;31430;61.646;24.704;2023-04-15T05:14:20;45.60;;;42.78;;
45714;SDS011;31430;61.646;24.704;2023-04-15T05:16:45;44.65;;;41.85;;
45714;SDS011;31430;61.646;24.704;2023-04-15T05:21:36;47.40;;;44.45;;
45714;SDS011;31430;61.646;24.704;2023-04-15T05:26:28;47.20;;;44.28;;
45714;SDS011;31430;61.646;24.704;2023-04-15T05:31:19;47.28;;;44.35;;
45714;SDS011;31430;61.646;24.704;2023-04-15T05:36:10;48.17;;;45.17;;
45714;SDS011;31430;61.646;24.704;2023-04-15T05:38:36;46.08;;;43.20;;
45714;SDS011;31430;61.646;24.704;2023-04-15T05:41:02;43.47;;;40.78;;
45714;SDS011;31430;61.646;24.704;2023-04-15T05:45:54;44.67;;;41.88;;
45714;SDS011;31430;61.646;24.704;2023-04-15T05:48:20;45.88;;;43.03;;
45714;SDS011;31430;61.646;24.704;2023-04-15T05:50:46;43.67;;;40.97;;
45714;SDS011;31430;61.646;24.704;2023-04-15T05:53:11;43.10;;;40.40;;
45714;SDS011;31430;61.646;24.704;2023-04-15T05:55:37;43.45;;;40.75;;
45714;SDS011;31430;61.646;24.704;2023-04-15T06:00:28;46.22;;;43.35;;
45714;SDS011;31430;61.646;24.704;2023-04-15T06:02:55;45.45;;;42.63;;
45714;SDS011;31430;61.646;24.704;2023-04-15T06:05:22;43.35;;;40.65;;
45714;SDS011;31430;61.646;24.704;2023-04-15T06:07:48;41.83;;;39.22;;
45714;SDS011;31430;61.646;24.704;2023-04-15T06:10:14;42.40;;;39.78;;
45714;SDS011;31430;61.646;24.704;2023-04-15T06:12:40;41.47;;;38.88;;
45714;SDS011;31430;61.646;24.704;2023-04-15T06:15:06;41.90;;;39.30;;
45714;SDS011;31430;61.646;24.704;2023-04-15T06:17:34;41.95;;;39.35;;
45714;SDS011;31430;61.646;24.704;2023-04-15T06:22:25;45.92;;;43.08;;
45714;SDS011;31430;61.646;24.704;2023-04-15T06:24:51;42.53;;;39.88;;
45714;SDS011;31430;61.646;24.704;2023-04-15T06:27:17;42.90;;;40.22;;
45714;SDS011;31430;61.646;24.704;2023-04-15T06:32:09;46.25;;;43.35;;
45714;SDS011;31430;61.646;24.704;2023-04-15T06:34:35;43.35;;;40.65;;
45714;SDS011;31430;61.646;24.704;2023-04-15T06:37:00;43.72;;;41.03;;
45714;SDS011;31430;61.646;24.704;2023-04-15T06:39:26;44.28;;;41.53;;
45714;SDS011;31430;61.646;24.704;2023-04-15T06:41:52;42.88;;;40.17;;
45714;SDS011;31430;61.646;24.704;2023-04-15T06:44:17;43.38;;;40.67;;
45714;SDS011;31430;61.646;24.704;2023-04-15T06:46:43;43.72;;;41.03;;
45714;SDS011;31430;61.646;24.704;2023-04-15T06:49:09;43.28;;;40.58;;
45714;SDS011;31430;61.646;24.704;2023-04-15T06:54:01;44.45;;;41.67;;
45714;SDS011;31430;61.646;24.704;2023-04-15T06:56:29;43.88;;;41.15;;
45714;SDS011;31430;61.646;24.704;2023-04-15T06:58:58;42.72;;;40.05;;
45714;SDS011;31430;61.646;24.704;2023-04-15T07:01:23;43.88;;;41.15;;
45714;SDS011;31430;61.646;24.704;2023-04-15T07:06:15;44.90;;;42.10;;
45714;SDS011;31430;61.646;24.704;2023-04-15T07:08:41;42.80;;;40.13;;
45714;SDS011;31430;61.646;24.704;2023-04-15T07:11:06;42.25;;;39.63;;
45714;SDS011;31430;61.646;24.704;2023-04-15T07:13:32;42.05;;;39.45;;
45714;SDS011;31430;61.646;24.704;2023-04-15T07:15:58;41.00;;;38.45;;
45714;SDS011;31430;61.646;24.704;2023-04-15T07:18:24;43.15;;;40.45;;
45714;SDS011;31430;61.646;24.704;2023-04-15T07:20:50;41.88;;;39.28;;
45714;SDS011;31430;61.646;24.704;2023-04-15T07:23:16;42.67;;;40.03;;
45714;SDS011;31430;61.646;24.704;2023-04-15T07:28:07;42.90;;;40.22;;
45714;SDS011;31430;61.646;24.704;2023-04-15T07:30:33;41.47;;;38.88;;
45714;SDS011;31430;61.646;24.704;2023-04-15T07:35:25;44.05;;;41.33;;
45714;SDS011;31430;61.646;24.704;2023-04-15T07:37:51;40.80;;;38.28;;
45714;SDS011;31430;61.646;24.704;2023-04-15T07:40:17;42.22;;;39.60;;
45714;SDS011;31430;61.646;24.704;2023-04-15T07:42:43;40.88;;;38.33;;
45714;SDS011;31430;61.646;24.704;2023-04-15T07:45:10;40.22;;;37.72;;
45714;SDS011;31430;61.646;24.704;2023-04-15T07:47:36;41.75;;;39.15;;
45714;SDS011;31430;61.646;24.704;2023-04-15T07:50:02;40.30;;;37.80;;
45714;SDS011;31430;61.646;24.704;2023-04-15T07:52:28;39.60;;;37.13;;
45714;SDS011;31430;61.646;24.704;2023-04-15T07:54:54;39.13;;;36.70;;
45714;SDS011;31430;61.646;24.704;2023-04-15T07:57:19;37.70;;;35.35;;
45714;SDS011;31430;61.646;24.704;2023-04-15T07:59:45;38.03;;;35.65;;
45714;SDS011;31430;61.646;24.704;2023-04-15T08:02:10;39.50;;;37.03;;
45714;SDS011;31430;61.646;24.704;2023-04-15T08:04:36;39.90;;;37.40;;
45714;SDS011;31430;61.646;24.704;2023-04-15T08:07:02;40.65;;;38.13;;
45714;SDS011;31430;61.646;24.704;2023-04-15T08:09:29;38.90;;;36.50;;
45714;SDS011;31430;61.646;24.704;2023-04-15T08:11:54;38.95;;;36.53;;
45714;SDS011;31430;61.646;24.704;2023-04-15T08:16:46;41.47;;;38.88;;
45714;SDS011;31430;61.646;24.704;2023-04-15T08:19:12;41.10;;;38.55;;
45714;SDS011;31430;61.646;24.704;2023-04-15T08:21:37;39.65;;;37.17;;
45714;SDS011;31430;61.646;24.704;2023-04-15T08:24:04;38.72;;;36.33;;
45714;SDS011;31430;61.646;24.704;2023-04-15T08:26:31;38.28;;;35.88;;
45714;SDS011;31430;61.646;24.704;2023-04-15T08:28:56;39.55;;;37.08;;
45714;SDS011;31430;61.646;24.704;2023-04-15T08:31:22;39.03;;;36.60;;
45714;SDS011;31430;61.646;24.704;2023-04-15T08:33:50;38.80;;;36.40;;
45714;SDS011;31430;61.646;24.704;2023-04-15T08:36:16;37.53;;;35.20;;
45714;SDS011;31430;61.646;24.704;2023-04-15T08:38:43;37.15;;;34.85;;
45714;SDS011;31430;61.646;24.704;2023-04-15T08:41:22;37.72;;;35.38;;
45714;SDS011;31430;61.646;24.704;2023-04-15T08:43:53;36.50;;;34.20;;
45714;SDS011;31430;61.646;24.704;2023-04-15T08:46:22;37.97;;;35.60;;
45714;SDS011;31430;61.646;24.704;2023-04-15T08:48:48;37.42;;;35.13;;
45714;SDS011;31430;61.646;24.704;2023-04-15T08:51:15;37.10;;;34.80;;
45714;SDS011;31430;61.646;24.704;2023-04-15T08:53:42;37.80;;;35.45;;
45714;SDS011;31430;61.646;24.704;2023-04-15T08:56:09;37.28;;;34.97;;
45714;SDS011;31430;61.646;24.704;2023-04-15T08:58:38;36.90;;;34.60;;
45714;SDS011;31430;61.646;24.704;2023-04-15T09:01:04;36.35;;;34.08;;
45714;SDS011;31430;61.646;24.704;2023-04-15T09:03:29;37.55;;;35.22;;
45714;SDS011;31430;61.646;24.704;2023-04-15T09:05:56;37.33;;;35.00;;
45714;SDS011;31430;61.646;24.704;2023-04-15T09:10:48;40.13;;;37.63;;
45714;SDS011;31430;61.646;24.704;2023-04-15T09:15:39;39.42;;;36.97;;
45714;SDS011;31430;61.646;24.704;2023-04-15T09:18:05;39.80;;;37.30;;
45714;SDS011;31430;61.646;24.704;2023-04-15T09:20:37;39.38;;;36.92;;
45714;SDS011;31430;61.646;24.704;2023-04-15T09:23:12;38.50;;;36.10;;
45714;SDS011;31430;61.646;24.704;2023-04-15T09:25:39;37.30;;;35.00;;
45714;SDS011;31430;61.646;24.704;2023-04-15T09:28:08;36.90;;;34.60;;
45714;SDS011;31430;61.646;24.704;2023-04-15T09:30:35;36.88;;;34.58;;
45714;SDS011;31430;61.646;24.704;2023-04-15T09:33:01;36.70;;;34.40;;
45714;SDS011;31430;61.646;24.704;2023-04-15T09:35:33;37.15;;;34.85;;
45714;SDS011;31430;61.646;24.704;2023-04-15T09:38:02;36.72;;;34.42;;
45714;SDS011;31430;61.646;24.704;2023-04-15T09:40:37;36.03;;;33.78;;
45714;SDS011;31430;61.646;24.704;2023-04-15T09:43:05;35.80;;;33.60;;
45714;SDS011;31430;61.646;24.704;2023-04-15T09:45:32;37.22;;;34.92;;
45714;SDS011;31430;61.646;24.704;2023-04-15T09:47:59;37.33;;;35.03;;
45714;SDS011;31430;61.646;24.704;2023-04-15T09:50:45;37.13;;;34.83;;
45714;SDS011;31430;61.646;24.704;2023-04-15T09:53:16;36.67;;;34.38;;
45714;SDS011;31430;61.646;24.704;2023-04-15T09:56:04;37.35;;;35.03;;
45714;SDS011;31430;61.646;24.704;2023-04-15T09:58:32;36.92;;;34.63;;
45714;SDS011;31430;61.646;24.704;2023-04-15T10:00:59;35.50;;;33.30;;
45714;SDS011;31430;61.646;24.704;2023-04-15T10:05:55;36.97;;;34.67;;
45714;SDS011;31430;61.646;24.704;2023-04-15T10:08:23;33.97;;;31.88;;
45714;SDS011;31430;61.646;24.704;2023-04-15T10:10:49;36.65;;;34.35;;
45714;SDS011;31430;61.646;24.704;2023-04-15T10:13:17;35.97;;;33.72;;
45714;SDS011;31430;61.646;24.704;2023-04-15T10:15:58;35.40;;;33.20;;
45714;SDS011;31430;61.646;24.704;2023-04-15T10:18:29;36.78;;;34.47;;
45714;SDS011;31430;61.646;24.704;2023-04-15T10:20:59;35.85;;;33.63;;
45714;SDS011;31430;61.646;24.704;2023-04-15T10:23:25;36.05;;;33.80;;
45714;SDS011;31430;61.646;24.704;2023-04-15T10:25:52;35.35;;;33.15;;
45714;SDS011;31430;61.646;24.704;2023-04-15T10:28:18;35.83;;;33.60;;
45714;SDS011;31430;61.646;24.704;2023-04-15T10:30:45;36.05;;;33.80;;
45714;SDS011;31430;61.646;24.704;2023-04-15T10:33:12;36.15;;;33.90;;
45714;SDS011;31430;61.646;24.704;2023-04-15T10:35:40;34.88;;;32.67;;
45714;SDS011;31430;61.646;24.704;2023-04-15T10:44:03;35.10;;;32.90;;
45714;SDS011;31430;61.646;24.704;2023-04-15T10:46:36;36.70;;;34.40;;
45714;SDS011;31430;61.646;24.704;2023-04-15T10:51:52;37.25;;;34.95;;
45714;SDS011;31430;61.646;24.704;2023-04-15T10:56:51;36.33;;;34.05;;
45714;SDS011;31430;61.646;24.704;2023-04-15T11:00:17;35.88;;;33.65;;
45714;SDS011;31430;61.646;24.704;2023-04-15T11:02:37;36.45;;;34.15;;
45714;SDS011;31430;61.646;24.704;2023-04-15T11:05:02;35.90;;;33.67;;
45714;SDS011;31430;61.646;24.704;2023-04-15T11:12:41;34.67;;;32.50;;
45714;SDS011;31430;61.646;24.704;2023-04-15T11:20:40;34.67;;;32.50;;
45714;SDS011;31430;61.646;24.704;2023-04-15T11:23:09;35.08;;;32.88;;
45714;SDS011;31430;61.646;24.704;2023-04-15T11:25:35;35.20;;;33.00;;
45714;SDS011;31430;61.646;24.704;2023-04-15T11:28:03;34.00;;;31.90;;
45714;SDS011;31430;61.646;24.704;2023-04-15T11:30:33;34.97;;;32.78;;
45714;SDS011;31430;61.646;24.704;2023-04-15T11:33:01;35.00;;;32.80;;
45714;SDS011;31430;61.646;24.704;2023-04-15T11:35:29;34.30;;;32.17;;
45714;SDS011;31430;61.646;24.704;2023-04-15T11:37:55;33.65;;;31.55;;
45714;SDS011;31430;61.646;24.704;2023-04-15T11:40:22;35.35;;;33.15;;
45714;SDS011;31430;61.646;24.704;2023-04-15T11:43:04;35.00;;;32.80;;
45714;SDS011;31430;61.646;24.704;2023-04-15T11:45:33;34.22;;;32.10;;
45714;SDS011;31430;61.646;24.704;2023-04-15T11:48:08;34.42;;;32.28;;
45714;SDS011;31430;61.646;24.704;2023-04-15T11:50:36;33.50;;;31.40;;
45714;SDS011;31430;61.646;24.704;2023-04-15T11:53:04;34.67;;;32.50;;
45714;SDS011;31430;61.646;24.704;2023-04-15T11:58:30;34.03;;;31.92;;
45714;SDS011;31430;61.646;24.704;2023-04-15T12:00:58;33.33;;;31.23;;
45714;SDS011;31430;61.646;24.704;2023-04-15T12:03:26;33.20;;;31.10;;
45714;SDS011;31430;61.646;24.704;2023-04-15T12:06:12;32.42;;;30.42;;
45714;SDS011;31430;61.646;24.704;2023-04-15T12:13:52;32.67;;;30.65;;
45714;SDS011;31430;61.646;24.704;2023-04-15T12:16:19;32.38;;;30.38;;
45714;SDS011;31430;61.646;24.704;2023-04-15T12:18:46;33.70;;;31.60;;
45714;SDS011;31430;61.646;24.704;2023-04-15T12:21:20;32.88;;;30.83;;
45714;SDS011;31430;61.646;24.704;2023-04-15T12:23:47;32.72;;;30.70;;
45714;SDS011;31430;61.646;24.704;2023-04-15T12:26:14;32.92;;;30.88;;
45714;SDS011;31430;61.646;24.704;2023-04-15T12:28:41;32.45;;;30.42;;
45714;SDS011;31430;61.646;24.704;2023-04-15T12:31:07;31.95;;;29.95;;
45714;SDS011;31430;61.646;24.704;2023-04-15T12:33:34;32.85;;;30.80;;
45714;SDS011;31430;61.646;24.704;2023-04-15T12:36:00;32.70;;;30.65;;
45714;SDS011;31430;61.646;24.704;2023-04-15T12:38:26;33.03;;;30.95;;
45714;SDS011;31430;61.646;24.704;2023-04-15T12:40:52;31.48;;;29.50;;
45714;SDS011;31430;61.646;24.704;2023-04-15T12:43:18;33.70;;;31.60;;
45714;SDS011;31430;61.646;24.704;2023-04-15T12:45:43;32.42;;;30.42;;
45714;SDS011;31430;61.646;24.704;2023-04-15T12:48:12;32.47;;;30.45;;
45714;SDS011;31430;61.646;24.704;2023-04-15T12:50:37;31.98;;;29.98;;
45714;SDS011;31430;61.646;24.704;2023-04-15T12:53:03;32.33;;;30.33;;
45714;SDS011;31430;61.646;24.704;2023-04-15T12:55:29;32.35;;;30.35;;
45714;SDS011;31430;61.646;24.704;2023-04-15T12:57:55;33.40;;;31.30;;
45714;SDS011;31430;61.646;24.704;2023-04-15T13:00:21;34.17;;;32.05;;
45714;SDS011;31430;61.646;24.704;2023-04-15T13:02:47;34.65;;;32.47;;
45714;SDS011;31430;61.646;24.704;2023-04-15T13:05:13;34.80;;;32.60;;
45714;SDS011;31430;61.646;24.704;2023-04-15T13:07:39;32.75;;;30.70;;
45714;SDS011;31430;61.646;24.704;2023-04-15T13:12:31;35.58;;;33.38;;
45714;SDS011;31430;61.646;24.704;2023-04-15T13:15:00;32.63;;;30.60;;
45714;SDS011;31430;61.646;24.704;2023-04-15T13:17:26;33.70;;;31.60;;
45714;SDS011;31430;61.646;24.704;2023-04-15T13:19:52;33.95;;;31.85;;
45714;SDS011;31430;61.646;24.704;2023-04-15T13:22:18;32.22;;;30.23;;
45714;SDS011;31430;61.646;24.704;2023-04-15T13:24:43;32.40;;;30.40;;
45714;SDS011;31430;61.646;24.704;2023-04-15T13:27:09;33.63;;;31.52;;
45714;SDS011;31430;61.646;24.704;2023-04-15T13:29:35;32.33;;;30.33;;
45714;SDS011;31430;61.646;24.704;2023-04-15T13:32:00;33.03;;;30.95;;
45714;SDS011;31430;61.646;24.704;2023-04-15T13:34:26;31.63;;;29.63;;
45714;SDS011;31430;61.646;24.704;2023-04-15T13:36:52;32.30;;;30.30;;
45714;SDS011;31430;61.646;24.704;2023-04-15T13:39:17;31.33;;;29.35;;
45714;SDS011;31430;61.646;24.704;2023-04-15T13:41:43;31.17;;;29.23;;
45714;SDS011;31430;61.646;24.704;2023-04-15T13:44:08;32.75;;;30.70;;
45714;SDS011;31430;61.646;24.704;2023-04-15T13:46:36;32.83;;;30.77;;
45714;SDS011;31430;61.646;24.704;2023-04-15T13:49:03;30.83;;;28.92;;
45714;SDS011;31430;61.646;24.704;2023-04-15T13:51:29;31.65;;;29.65;;
45714;SDS011;31430;61.646;24.704;2023-04-15T13:53:56;31.88;;;29.88;;
45714;SDS011;31430;61.646;24.704;2023-04-15T13:56:22;32.40;;;30.40;;
45714;SDS011;31430;61.646;24.704;2023-04-15T13:58:48;32.42;;;30.42;;
45714;SDS011;31430;61.646;24.704;2023-04-15T14:01:13;31.80;;;29.80;;
45714;SDS011;31430;61.646;24.704;2023-04-15T14:03:39;31.15;;;29.20;;
45714;SDS011;31430;61.646;24.704;2023-04-15T14:06:05;31.50;;;29.52;;
45714;SDS011;31430;61.646;24.704;2023-04-15T14:08:31;31.90;;;29.90;;
45714;SDS011;31430;61.646;24.704;2023-04-15T14:13:22;35.25;;;33.05;;
45714;SDS011;31430;61.646;24.704;2023-04-15T14:15:48;31.90;;;29.90;;
45714;SDS011;31430;61.646;24.704;2023-04-15T14:18:14;32.17;;;30.17;;
45714;SDS011;31430;61.646;24.704;2023-04-15T14:20:40;32.55;;;30.52;;
45714;SDS011;31430;61.646;24.704;2023-04-15T14:23:05;31.90;;;29.90;;
45714;SDS011;31430;61.646;24.704;2023-04-15T14:25:31;32.28;;;30.27;;
45714;SDS011;31430;61.646;24.704;2023-04-15T14:27:57;31.52;;;29.52;;
45714;SDS011;31430;61.646;24.704;2023-04-15T14:30:22;32.03;;;30.02;;
45714;SDS011;31430;61.646;24.704;2023-04-15T14:32:48;32.53;;;30.50;;
45714;SDS011;31430;61.646;24.704;2023-04-15T14:35:13;31.83;;;29.83;;
45714;SDS011;31430;61.646;24.704;2023-04-15T14:37:39;31.92;;;29.92;;
45714;SDS011;31430;61.646;24.704;2023-04-15T14:40:05;32.17;;;30.17;;
45714;SDS011;31430;61.646;24.704;2023-04-15T14:42:31;30.80;;;28.90;;
45714;SDS011;31430;61.646;24.704;2023-04-15T14:44:57;31.70;;;29.70;;
45714;SDS011;31430;61.646;24.704;2023-04-15T14:47:22;32.15;;;30.15;;
45714;SDS011;31430;61.646;24.704;2023-04-15T14:49:48;31.38;;;29.40;;
45714;SDS011;31430;61.646;24.704;2023-04-15T14:52:14;30.80;;;28.90;;
45714;SDS011;31430;61.646;24.704;2023-04-15T14:54:40;30.92;;;29.00;;
45714;SDS011;31430;61.646;24.704;2023-04-15T14:57:06;30.67;;;28.77;;
45714;SDS011;31430;61.646;24.704;2023-04-15T14:59:32;31.67;;;29.67;;
45714;SDS011;31430;61.646;24.704;2023-04-15T15:01:58;30.10;;;28.20;;
45714;SDS011;31430;61.646;24.704;2023-04-15T15:04:24;31.63;;;29.63;;
45714;SDS011;31430;61.646;24.704;2023-04-15T15:06:49;31.55;;;29.58;;
45714;SDS011;31430;61.646;24.704;2023-04-15T15:09:15;31.25;;;29.27;;
45714;SDS011;31430;61.646;24.704;2023-04-15T15:11:41;32.45;;;30.45;;
45714;SDS011;31430;61.646;24.704;2023-04-15T15:14:06;31.83;;;29.83;;
45714;SDS011;31430;61.646;24.704;2023-04-15T15:16:32;31.92;;;29.92;;
45714;SDS011;31430;61.646;24.704;2023-04-15T15:18:58;31.90;;;29.90;;
45714;SDS011;31430;61.646;24.704;2023-04-15T15:21:24;32.42;;;30.42;;
45714;SDS011;31430;61.646;24.704;2023-04-15T15:23:51;32.67;;;30.65;;
45714;SDS011;31430;61.646;24.704;2023-04-15T15:26:16;32.25;;;30.25;;
45714;SDS011;31430;61.646;24.704;2023-04-15T15:28:43;32.30;;;30.30;;
45714;SDS011;31430;61.646;24.704;2023-04-15T15:33:34;34.15;;;32.03;;
45714;SDS011;31430;61.646;24.704;2023-04-15T15:36:00;33.35;;;31.25;;
45714;SDS011;31430;61.646;24.704;2023-04-15T15:38:27;32.63;;;30.60;;
45714;SDS011;31430;61.646;24.704;2023-04-15T15:40:52;31.65;;;29.65;;
45714;SDS011;31430;61.646;24.704;2023-04-15T15:43:18;33.88;;;31.77;;
45714;SDS011;31430;61.646;24.704;2023-04-15T15:45:44;33.00;;;30.95;;
45714;SDS011;31430;61.646;24.704;2023-04-15T15:48:10;33.60;;;31.50;;
45714;SDS011;31430;61.646;24.704;2023-04-15T15:50:35;32.08;;;30.08;;
45714;SDS011;31430;61.646;24.704;2023-04-15T15:53:01;31.95;;;29.95;;
45714;SDS011;31430;61.646;24.704;2023-04-15T15:55:27;32.95;;;30.88;;
45714;SDS011;31430;61.646;24.704;2023-04-15T15:57:52;31.60;;;29.60;;
45714;SDS011;31430;61.646;24.704;2023-04-15T16:00:18;30.77;;;28.88;;
45714;SDS011;31430;61.646;24.704;2023-04-15T16:02:44;32.10;;;30.10;;
45714;SDS011;31430;61.646;24.704;2023-04-15T16:05:09;31.48;;;29.50;;
45714;SDS011;31430;61.646;24.704;2023-04-15T16:07:35;32.63;;;30.60;;
45714;SDS011;31430;61.646;24.704;2023-04-15T16:10:03;32.13;;;30.13;;
45714;SDS011;31430;61.646;24.704;2023-04-15T16:12:29;32.75;;;30.70;;
45714;SDS011;31430;61.646;24.704;2023-04-15T16:14:55;33.58;;;31.48;;
45714;SDS011;31430;61.646;24.704;2023-04-15T16:17:21;32.97;;;30.90;;
45714;SDS011;31430;61.646;24.704;2023-04-15T16:19:46;32.85;;;30.80;;
45714;SDS011;31430;61.646;24.704;2023-04-15T16:22:12;33.30;;;31.20;;
45714;SDS011;31430;61.646;24.704;2023-04-15T16:24:38;33.20;;;31.10;;
45714;SDS011;31430;61.646;24.704;2023-04-15T16:27:03;33.03;;;30.95;;
45714;SDS011;31430;61.646;24.704;2023-04-15T16:29:29;33.60;;;31.50;;
45714;SDS011;31430;61.646;24.704;2023-04-15T16:31:55;32.55;;;30.52;;
45714;SDS011;31430;61.646;24.704;2023-04-15T16:34:20;33.00;;;30.92;;
45714;SDS011;31430;61.646;24.704;2023-04-15T16:36:46;33.20;;;31.10;;
45714;SDS011;31430;61.646;24.704;2023-04-15T16:39:12;33.80;;;31.70;;
45714;SDS011;31430;61.646;24.704;2023-04-15T16:41:37;32.83;;;30.77;;
45714;SDS011;31430;61.646;24.704;2023-04-15T16:44:03;33.63;;;31.52;;
45714;SDS011;31430;61.646;24.704;2023-04-15T16:46:30;33.35;;;31.25;;
45714;SDS011;31430;61.646;24.704;2023-04-15T16:48:56;32.90;;;30.83;;
45714;SDS011;31430;61.646;24.704;2023-04-15T16:51:21;33.88;;;31.77;;
45714;SDS011;31430;61.646;24.704;2023-04-15T16:53:47;33.75;;;31.65;;
45714;SDS011;31430;61.646;24.704;2023-04-15T16:56:13;33.80;;;31.70;;
45714;SDS011;31430;61.646;24.704;2023-04-15T16:58:39;34.03;;;31.92;;
45714;SDS011;31430;61.646;24.704;2023-04-15T17:01:04;35.72;;;33.50;;
45714;SDS011;31430;61.646;24.704;2023-04-15T17:03:30;33.78;;;31.67;;
45714;SDS011;31430;61.646;24.704;2023-04-15T17:05:56;34.38;;;32.22;;
45714;SDS011;31430;61.646;24.704;2023-04-15T17:08:21;33.50;;;31.40;;
45714;SDS011;31430;61.646;24.704;2023-04-15T17:10:47;33.97;;;31.88;;
45714;SDS011;31430;61.646;24.704;2023-04-15T17:13:13;33.63;;;31.52;;
45714;SDS011;31430;61.646;24.704;2023-04-15T17:15:38;34.33;;;32.20;;
45714;SDS011;31430;61.646;24.704;2023-04-15T17:18:04;33.15;;;31.05;;